createdAt,value
2018-05-29T00:00:29.581Z,21.89
2018-05-29T00:01:29.596Z,21.93
2018-05-29T00:02:29.405Z,21.93
2018-05-29T00:03:29.388Z,21.88
2018-05-29T00:04:29.403Z,21.91
2018-05-29T00:05:29.405Z,21.96
2018-05-29T00:06:29.415Z,21.91
2018-05-29T00:07:29.606Z,21.91
2018-05-29T00:08:29.416Z,21.83
2018-05-29T00:09:29.628Z,21.79
2018-05-29T00:10:29.615Z,21.76
2018-05-29T00:11:29.447Z,21.76
2018-05-29T00:12:29.423Z,21.76
2018-05-29T00:13:29.424Z,21.75
2018-05-29T00:14:29.430Z,21.72
2018-05-29T00:15:29.445Z,21.70
2018-05-29T00:16:29.446Z,21.73
2018-05-29T00:17:29.652Z,21.72
2018-05-29T00:18:29.457Z,21.73
2018-05-29T00:19:29.457Z,21.76
2018-05-29T00:20:29.451Z,21.66
2018-05-29T00:21:29.454Z,21.60
2018-05-29T00:22:29.470Z,21.61
2018-05-29T00:23:29.476Z,21.61
2018-05-29T00:24:29.478Z,21.60
2018-05-29T00:25:29.467Z,21.46
2018-05-29T00:26:29.487Z,21.54
2018-05-29T00:27:29.476Z,21.51
2018-05-29T00:28:29.684Z,21.51
2018-05-29T00:29:29.482Z,21.54
2018-05-29T00:30:29.688Z,21.52
2018-05-29T00:31:29.695Z,21.43
2018-05-29T00:32:29.496Z,21.54
2018-05-29T00:33:29.523Z,21.54
2018-05-29T00:34:29.511Z,21.54
2018-05-29T00:35:29.503Z,21.51
2018-05-29T00:36:29.508Z,21.51
2018-05-29T00:37:29.524Z,21.39
2018-05-29T00:38:29.525Z,21.50
2018-05-29T00:39:29.546Z,21.51
2018-05-29T00:40:29.729Z,21.61
2018-05-29T00:41:29.528Z,21.45
2018-05-29T00:42:29.735Z,21.54
2018-05-29T00:43:29.557Z,21.52
2018-05-29T00:44:29.535Z,21.46
2018-05-29T00:45:29.569Z,21.52
2018-05-29T00:46:29.553Z,21.55
2018-05-29T00:47:29.561Z,21.39
2018-05-29T00:48:29.575Z,21.46
2018-05-29T00:49:29.553Z,21.35
2018-05-29T00:50:29.556Z,21.35
2018-05-29T00:51:29.767Z,21.30
2018-05-29T00:52:29.568Z,21.15
2018-05-29T00:53:29.567Z,21.03
2018-05-29T00:54:29.572Z,21.03
2018-05-29T00:55:29.576Z,20.84
2018-05-29T00:56:29.577Z,20.82
2018-05-29T00:57:29.785Z,20.72
2018-05-29T00:58:29.607Z,20.70
2018-05-29T00:59:29.792Z,20.65
2018-05-29T01:00:29.590Z,20.55
2018-05-29T01:01:29.799Z,20.55
2018-05-29T01:02:29.803Z,20.51
2018-05-29T01:03:29.611Z,20.52
2018-05-29T01:04:29.608Z,20.50
2018-05-29T01:05:29.810Z,20.51
2018-05-29T01:06:29.620Z,20.52
2018-05-29T01:07:29.827Z,20.47
2018-05-29T01:08:29.625Z,20.41
2018-05-29T01:09:29.620Z,20.32
2018-05-29T01:10:29.642Z,20.43
2018-05-29T01:11:29.626Z,20.41
2018-05-29T01:12:29.639Z,20.44
2018-05-29T01:13:29.647Z,20.51
2018-05-29T01:14:29.647Z,20.55
2018-05-29T01:15:29.640Z,20.55
2018-05-29T01:16:29.642Z,20.51
2018-05-29T01:17:29.645Z,20.51
2018-05-29T01:18:29.851Z,20.50
2018-05-29T01:19:29.664Z,20.55
2018-05-29T01:20:29.666Z,20.56
2018-05-29T01:21:29.659Z,20.52
2018-05-29T01:22:29.661Z,20.55
2018-05-29T01:23:29.664Z,20.55
2018-05-29T01:24:29.890Z,20.62
2018-05-29T01:25:29.872Z,20.67
2018-05-29T01:26:29.684Z,20.70
2018-05-29T01:27:29.878Z,20.70
2018-05-29T01:28:29.896Z,20.63
2018-05-29T01:29:29.682Z,20.81
2018-05-29T01:30:29.688Z,20.82
2018-05-29T01:31:29.689Z,20.85
2018-05-29T01:32:29.696Z,20.90
2018-05-29T01:33:29.900Z,20.87
2018-05-29T01:34:29.698Z,20.95
2018-05-29T01:35:29.906Z,20.95
2018-05-29T01:36:29.729Z,20.95
2018-05-29T01:37:29.720Z,20.93
2018-05-29T01:38:29.710Z,20.93
2018-05-29T01:39:29.713Z,20.99
2018-05-29T01:40:29.727Z,20.92
2018-05-29T01:41:29.922Z,20.99
2018-05-29T01:42:29.743Z,21.00
2018-05-29T01:43:29.751Z,21.03
2018-05-29T01:44:29.738Z,21.03
2018-05-29T01:45:29.731Z,21.07
2018-05-29T01:46:29.948Z,21.05
2018-05-29T01:47:29.738Z,21.05
2018-05-29T01:48:29.943Z,21.02
2018-05-29T01:49:29.766Z,21.00
2018-05-29T01:50:29.751Z,21.05
2018-05-29T01:51:29.751Z,21.05
2018-05-29T01:52:29.764Z,20.97
2018-05-29T01:53:29.758Z,21.07
2018-05-29T01:54:29.962Z,21.11
2018-05-29T01:55:29.780Z,21.12
2018-05-29T01:56:29.970Z,21.14
2018-05-29T01:57:29.972Z,21.27
2018-05-29T01:58:29.787Z,21.20
2018-05-29T01:59:29.780Z,21.24
2018-05-29T02:00:29.791Z,21.21
2018-05-29T02:01:29.781Z,21.17
2018-05-29T02:02:29.785Z,21.20
2018-05-29T02:03:29.994Z,21.21
2018-05-29T02:04:30.085Z,21.25
2018-05-29T02:05:30.014Z,21.15
2018-05-29T02:06:29.811Z,21.17
2018-05-29T02:07:29.814Z,21.09
2018-05-29T02:08:29.815Z,20.99
2018-05-29T02:09:29.835Z,20.92
2018-05-29T02:10:30.042Z,20.97
2018-05-29T02:11:29.814Z,20.82
2018-05-29T02:12:30.029Z,20.87
2018-05-29T02:13:29.841Z,20.81
2018-05-29T02:14:30.052Z,20.70
2018-05-29T02:15:29.827Z,20.58
2018-05-29T02:16:29.832Z,20.44
2018-05-29T02:17:29.834Z,20.36
2018-05-29T02:18:30.052Z,20.10
2018-05-29T02:19:29.853Z,20.03
2018-05-29T02:20:29.843Z,19.89
2018-05-29T02:21:29.845Z,19.86
2018-05-29T02:22:30.051Z,19.73
2018-05-29T02:23:29.861Z,19.69
2018-05-29T02:24:30.059Z,19.56
2018-05-29T02:25:29.870Z,19.54
2018-05-29T02:26:29.860Z,19.41
2018-05-29T02:27:29.865Z,19.39
2018-05-29T02:28:29.869Z,19.26
2018-05-29T02:29:29.870Z,19.12
2018-05-29T02:30:30.088Z,19.19
2018-05-29T02:31:29.875Z,19.04
2018-05-29T02:32:29.878Z,19.00
2018-05-29T02:33:29.889Z,18.95
2018-05-29T02:34:29.884Z,18.84
2018-05-29T02:35:29.886Z,18.73
2018-05-29T02:36:29.892Z,18.74
2018-05-29T02:37:29.893Z,18.65
2018-05-29T02:38:29.910Z,18.66
2018-05-29T02:39:29.898Z,18.47
2018-05-29T02:40:29.925Z,18.41
2018-05-29T02:41:29.903Z,18.38
2018-05-29T02:42:29.910Z,18.33
2018-05-29T02:43:29.912Z,18.31
2018-05-29T02:44:30.115Z,18.26
2018-05-29T02:45:29.914Z,18.40
2018-05-29T02:46:29.933Z,18.35
2018-05-29T02:47:29.926Z,18.38
2018-05-29T02:48:30.125Z,18.37
2018-05-29T02:49:29.924Z,18.35
2018-05-29T02:50:29.927Z,18.35
2018-05-29T02:51:30.134Z,18.34
2018-05-29T02:52:29.934Z,18.22
2018-05-29T02:53:29.936Z,18.38
2018-05-29T02:54:29.940Z,18.40
2018-05-29T02:55:29.943Z,18.22
2018-05-29T02:56:29.945Z,18.15
2018-05-29T02:57:29.946Z,18.15
2018-05-29T02:58:29.948Z,18.04
2018-05-29T02:59:30.153Z,17.98
2018-05-29T03:00:29.954Z,17.97
2018-05-29T03:01:29.956Z,17.90
2018-05-29T03:02:29.958Z,17.95
2018-05-29T03:03:29.974Z,17.92
2018-05-29T03:04:30.180Z,17.94
2018-05-29T03:05:29.977Z,18.00
2018-05-29T03:06:30.183Z,17.97
2018-05-29T03:07:29.973Z,18.04
2018-05-29T03:08:29.970Z,18.00
2018-05-29T03:09:29.974Z,18.03
2018-05-29T03:10:29.981Z,18.01
2018-05-29T03:11:30.184Z,18.03
2018-05-29T03:12:30.187Z,18.00
2018-05-29T03:13:29.983Z,18.01
2018-05-29T03:14:30.192Z,18.16
2018-05-29T03:15:30.015Z,18.18
2018-05-29T03:16:30.202Z,18.18
2018-05-29T03:17:30.020Z,18.07
2018-05-29T03:18:29.998Z,18.13
2018-05-29T03:19:30.030Z,18.04
2018-05-29T03:20:30.230Z,18.03
2018-05-29T03:21:30.215Z,18.00
2018-05-29T03:22:30.019Z,17.97
2018-05-29T03:23:30.011Z,17.98
2018-05-29T03:24:30.010Z,17.97
2018-05-29T03:25:30.009Z,18.05
2018-05-29T03:26:30.046Z,17.92
2018-05-29T03:27:30.218Z,17.90
2018-05-29T03:28:30.026Z,17.95
2018-05-29T03:29:30.021Z,17.98
2018-05-29T03:30:30.235Z,17.95
2018-05-29T03:31:30.026Z,18.00
2018-05-29T03:32:30.228Z,18.00
2018-05-29T03:33:30.242Z,17.98
2018-05-29T03:34:30.048Z,17.97
2018-05-29T03:35:30.244Z,17.98
2018-05-29T03:36:30.038Z,18.01
2018-05-29T03:37:30.039Z,18.07
2018-05-29T03:38:30.256Z,18.04
2018-05-29T03:39:30.054Z,18.04
2018-05-29T03:40:30.043Z,18.03
2018-05-29T03:41:30.054Z,17.95
2018-05-29T03:42:30.050Z,18.04
2018-05-29T03:43:30.050Z,18.04
2018-05-29T03:44:30.061Z,17.97
2018-05-29T03:45:30.052Z,17.95
2018-05-29T03:46:30.259Z,17.89
2018-05-29T03:47:30.261Z,17.79
2018-05-29T03:48:30.275Z,17.78
2018-05-29T03:49:30.061Z,17.78
2018-05-29T03:50:30.064Z,17.76
2018-05-29T03:51:30.079Z,17.78
2018-05-29T03:52:30.273Z,17.70
2018-05-29T03:53:30.073Z,17.71
2018-05-29T03:54:30.083Z,17.68
2018-05-29T03:55:30.072Z,17.70
2018-05-29T03:56:30.298Z,17.72
2018-05-29T03:57:30.105Z,17.67
2018-05-29T03:58:30.078Z,17.71
2018-05-29T03:59:30.098Z,17.67
2018-05-29T04:00:30.097Z,17.64
2018-05-29T04:01:30.088Z,17.74
2018-05-29T04:02:30.315Z,17.74
2018-05-29T04:03:30.100Z,17.78
2018-05-29T04:04:30.105Z,17.78
2018-05-29T04:05:30.092Z,17.79
2018-05-29T04:06:30.099Z,17.83
2018-05-29T04:07:30.308Z,17.83
2018-05-29T04:08:30.312Z,17.79
2018-05-29T04:09:30.103Z,17.80
2018-05-29T04:10:30.114Z,17.72
2018-05-29T04:11:30.105Z,17.79
2018-05-29T04:12:30.121Z,17.71
2018-05-29T04:13:30.110Z,17.76
2018-05-29T04:14:30.126Z,17.76
2018-05-29T04:15:30.115Z,17.76
2018-05-29T04:16:30.315Z,17.79
2018-05-29T04:17:30.139Z,17.76
2018-05-29T04:18:30.335Z,17.82
2018-05-29T04:19:30.119Z,17.79
2018-05-29T04:20:30.344Z,17.83
2018-05-29T04:21:30.122Z,17.89
2018-05-29T04:22:30.142Z,17.92
2018-05-29T04:23:30.127Z,17.97
2018-05-29T04:24:30.153Z,18.00
2018-05-29T04:25:30.343Z,17.92
2018-05-29T04:26:30.136Z,17.97
2018-05-29T04:27:30.339Z,18.11
2018-05-29T04:28:30.141Z,18.15
2018-05-29T04:29:30.139Z,18.16
2018-05-29T04:30:30.157Z,18.23
2018-05-29T04:31:30.142Z,18.23
2018-05-29T04:32:30.362Z,18.28
2018-05-29T04:33:30.163Z,18.31
2018-05-29T04:34:30.160Z,18.37
2018-05-29T04:35:30.366Z,18.40
2018-05-29T04:36:30.354Z,18.38
2018-05-29T04:37:30.151Z,18.44
2018-05-29T04:38:30.166Z,18.49
2018-05-29T04:39:30.166Z,18.53
2018-05-29T04:40:30.173Z,18.45
2018-05-29T04:41:30.162Z,18.53
2018-05-29T04:42:30.179Z,18.58
2018-05-29T04:43:30.171Z,18.58
2018-05-29T04:44:30.371Z,18.49
2018-05-29T04:45:30.171Z,18.58
2018-05-29T04:46:30.183Z,18.52
2018-05-29T04:47:30.175Z,18.62
2018-05-29T04:48:30.377Z,18.59
2018-05-29T04:49:30.178Z,18.60
2018-05-29T04:50:30.183Z,18.55
2018-05-29T04:51:30.194Z,18.53
2018-05-29T04:52:30.196Z,18.66
2018-05-29T04:53:30.388Z,18.70
2018-05-29T04:54:30.192Z,18.62
2018-05-29T04:55:30.193Z,18.62
2018-05-29T04:56:30.268Z,18.59
2018-05-29T04:57:30.212Z,18.65
2018-05-29T04:58:30.398Z,18.70
2018-05-29T04:59:30.402Z,18.75
2018-05-29T05:00:30.203Z,18.86
2018-05-29T05:01:30.204Z,18.86
2018-05-29T05:02:30.468Z,18.78
2018-05-29T05:03:30.225Z,18.84
2018-05-29T05:04:30.214Z,18.80
2018-05-29T05:05:30.212Z,18.80
2018-05-29T05:06:30.234Z,18.92
2018-05-29T05:07:30.238Z,18.83
2018-05-29T05:08:30.227Z,18.83
2018-05-29T05:09:30.278Z,18.81
2018-05-29T05:10:30.227Z,18.84
2018-05-29T05:11:30.232Z,18.83
2018-05-29T05:12:30.241Z,18.88
2018-05-29T05:13:30.253Z,18.77
2018-05-29T05:14:30.454Z,18.80
2018-05-29T05:15:30.235Z,18.90
2018-05-29T05:16:30.236Z,18.96
2018-05-29T05:17:30.250Z,18.93
2018-05-29T05:18:30.244Z,18.95
2018-05-29T05:19:30.246Z,18.96
2018-05-29T05:20:30.456Z,19.09
2018-05-29T05:21:30.255Z,18.98
2018-05-29T05:22:30.260Z,19.08
2018-05-29T05:23:30.325Z,19.09
2018-05-29T05:24:30.259Z,19.02
2018-05-29T05:25:30.280Z,19.09
2018-05-29T05:26:30.290Z,19.08
2018-05-29T05:27:30.287Z,19.02
2018-05-29T05:28:30.266Z,19.04
2018-05-29T05:29:30.271Z,19.07
2018-05-29T05:30:30.277Z,19.00
2018-05-29T05:31:30.472Z,19.04
2018-05-29T05:32:30.487Z,19.11
2018-05-29T05:33:30.284Z,19.18
2018-05-29T05:34:30.514Z,19.24
2018-05-29T05:35:30.286Z,19.12
2018-05-29T05:36:30.284Z,19.19
2018-05-29T05:37:30.285Z,19.21
2018-05-29T05:38:30.288Z,19.18
2018-05-29T05:39:30.305Z,19.22
2018-05-29T05:40:30.293Z,19.27
2018-05-29T05:41:30.304Z,19.29
2018-05-29T05:42:30.309Z,19.22
2018-05-29T05:43:30.301Z,19.21
2018-05-29T05:44:30.303Z,19.22
2018-05-29T05:45:30.322Z,19.31
2018-05-29T05:46:30.307Z,19.39
2018-05-29T05:47:30.309Z,19.37
2018-05-29T05:48:30.514Z,19.41
2018-05-29T05:49:30.313Z,19.47
2018-05-29T05:50:30.325Z,19.55
2018-05-29T05:51:30.530Z,19.70
2018-05-29T05:52:30.521Z,19.73
2018-05-29T05:53:30.331Z,19.73
2018-05-29T05:54:30.325Z,19.81
2018-05-29T05:55:30.328Z,19.76
2018-05-29T05:56:30.338Z,19.81
2018-05-29T05:57:30.534Z,19.79
2018-05-29T05:58:30.386Z,19.95
2018-05-29T05:59:30.336Z,19.92
2018-05-29T06:00:30.339Z,20.00
2018-05-29T06:01:30.343Z,20.06
2018-05-29T06:02:30.553Z,20.03
2018-05-29T06:03:30.357Z,20.09
2018-05-29T06:04:30.352Z,20.16
2018-05-29T06:05:30.568Z,20.16
2018-05-29T06:06:30.370Z,20.13
2018-05-29T06:07:30.386Z,20.22
2018-05-29T06:08:30.362Z,20.19
2018-05-29T06:09:30.380Z,20.26
2018-05-29T06:10:30.567Z,20.40
2018-05-29T06:11:30.369Z,20.34
2018-05-29T06:12:30.583Z,20.48
2018-05-29T06:13:30.383Z,20.55
2018-05-29T06:14:30.388Z,20.59
2018-05-29T06:15:30.392Z,20.69
2018-05-29T06:16:30.380Z,20.72
2018-05-29T06:17:30.587Z,20.84
2018-05-29T06:18:30.599Z,20.95
2018-05-29T06:19:30.399Z,21.03
2018-05-29T06:20:30.394Z,21.07
2018-05-29T06:21:30.612Z,21.15
2018-05-29T06:22:30.409Z,21.21
2018-05-29T06:23:30.400Z,21.32
2018-05-29T06:24:30.414Z,21.39
2018-05-29T06:25:30.620Z,21.52
2018-05-29T06:26:30.410Z,21.67
2018-05-29T06:27:30.615Z,21.67
2018-05-29T06:28:30.462Z,21.77
2018-05-29T06:29:30.429Z,21.96
2018-05-29T06:30:30.433Z,22.13
2018-05-29T06:31:30.625Z,22.13
2018-05-29T06:32:30.427Z,22.23
2018-05-29T06:33:30.460Z,22.32
2018-05-29T06:34:30.452Z,22.29
2018-05-29T06:35:30.451Z,22.36
2018-05-29T06:36:30.449Z,22.45
2018-05-29T06:37:30.454Z,22.59
2018-05-29T06:38:30.445Z,22.54
2018-05-29T06:39:30.447Z,22.80
2018-05-29T06:40:30.453Z,22.78
2018-05-29T06:41:30.455Z,22.87
2018-05-29T06:42:30.663Z,22.93
2018-05-29T06:43:30.464Z,22.93
2018-05-29T06:44:30.469Z,22.99
2018-05-29T06:45:30.471Z,23.09
2018-05-29T06:46:30.474Z,23.10
2018-05-29T06:47:30.482Z,23.20
2018-05-29T06:48:30.478Z,23.21
2018-05-29T06:49:30.483Z,23.15
2018-05-29T06:50:30.488Z,23.12
2018-05-29T06:51:30.501Z,23.12
2018-05-29T06:52:30.557Z,23.12
2018-05-29T06:53:30.495Z,23.10
2018-05-29T06:54:30.509Z,22.96
2018-05-29T06:55:30.506Z,22.96
2018-05-29T06:56:30.508Z,22.99
2018-05-29T06:57:30.523Z,22.96
2018-05-29T06:58:30.720Z,22.81
2018-05-29T06:59:30.723Z,22.84
2018-05-29T07:00:30.522Z,22.83
2018-05-29T07:01:30.525Z,22.83
2018-05-29T07:02:30.529Z,22.69
2018-05-29T07:03:30.543Z,22.81
2018-05-29T07:04:30.535Z,22.80
2018-05-29T07:05:30.741Z,22.70
2018-05-29T07:06:30.545Z,22.78
2018-05-29T07:07:30.544Z,22.81
2018-05-29T07:08:30.751Z,22.84
2018-05-29T07:09:30.562Z,22.88
2018-05-29T07:10:30.567Z,22.90
2018-05-29T07:11:30.559Z,22.88
2018-05-29T07:12:30.573Z,22.90
2018-05-29T07:13:30.566Z,22.93
2018-05-29T07:14:30.792Z,23.03
2018-05-29T07:15:30.820Z,23.02
2018-05-29T07:16:30.578Z,23.00
2018-05-29T07:17:30.579Z,23.00
2018-05-29T07:18:30.595Z,23.15
2018-05-29T07:19:30.592Z,23.20
2018-05-29T07:20:30.590Z,23.20
2018-05-29T07:21:30.794Z,23.27
2018-05-29T07:22:30.598Z,23.23
2018-05-29T07:23:30.627Z,23.20
2018-05-29T07:24:30.604Z,23.20
2018-05-29T07:25:30.825Z,23.36
2018-05-29T07:26:30.611Z,23.32
2018-05-29T07:27:30.629Z,23.32
2018-05-29T07:28:30.619Z,23.37
2018-05-29T07:29:30.621Z,23.41
2018-05-29T07:30:30.628Z,23.55
2018-05-29T07:31:30.641Z,23.84
2018-05-29T07:32:30.645Z,23.93
2018-05-29T07:33:30.651Z,24.01
2018-05-29T07:34:30.654Z,24.21
2018-05-29T07:35:30.644Z,24.39
2018-05-29T07:36:30.650Z,24.51
2018-05-29T07:37:30.661Z,24.55
2018-05-29T07:38:30.655Z,24.57
2018-05-29T07:39:30.677Z,24.63
2018-05-29T07:40:30.664Z,24.57
2018-05-29T07:41:30.691Z,24.63
2018-05-29T07:42:30.669Z,24.60
2018-05-29T07:43:30.683Z,24.70
2018-05-29T07:44:30.680Z,24.95
2018-05-29T07:45:30.694Z,24.95
2018-05-29T07:46:30.689Z,25.04
2018-05-29T07:47:30.691Z,24.95
2018-05-29T07:48:30.690Z,24.95
2018-05-29T07:49:30.696Z,25.01
2018-05-29T07:50:30.699Z,25.06
2018-05-29T07:51:30.705Z,25.08
2018-05-29T07:52:30.708Z,25.06
2018-05-29T07:53:30.711Z,24.93
2018-05-29T07:54:30.715Z,24.92
2018-05-29T07:55:30.729Z,25.10
2018-05-29T07:56:30.721Z,25.38
2018-05-29T07:57:30.726Z,25.51
2018-05-29T07:58:30.728Z,25.83
2018-05-29T07:59:30.756Z,25.75
2018-05-29T08:00:30.736Z,25.73
2018-05-29T08:01:30.740Z,25.83
2018-05-29T08:02:30.806Z,25.98
2018-05-29T08:03:30.751Z,25.99
2018-05-29T08:04:30.751Z,25.98
2018-05-29T08:05:30.756Z,25.93
2018-05-29T08:06:30.838Z,25.99
2018-05-29T08:07:30.968Z,26.07
2018-05-29T08:08:30.781Z,26.23
2018-05-29T08:09:30.775Z,26.34
2018-05-29T08:10:30.794Z,26.37
2018-05-29T08:11:30.781Z,26.43
2018-05-29T08:12:30.786Z,26.60
2018-05-29T08:13:30.851Z,26.68
2018-05-29T08:14:30.804Z,26.73
2018-05-29T08:15:30.795Z,26.71
2018-05-29T08:16:30.802Z,26.81
2018-05-29T08:17:30.806Z,26.92
2018-05-29T08:18:30.837Z,26.78
2018-05-29T08:19:30.814Z,26.77
2018-05-29T08:20:30.831Z,26.81
2018-05-29T08:21:30.837Z,26.96
2018-05-29T08:22:30.827Z,27.02
2018-05-29T08:23:30.836Z,27.03
2018-05-29T08:24:30.836Z,26.97
2018-05-29T08:25:30.851Z,26.95
2018-05-29T08:26:30.859Z,27.14
2018-05-29T08:27:30.857Z,27.25
2018-05-29T08:28:30.856Z,27.27
2018-05-29T08:29:30.863Z,27.35
2018-05-29T08:30:30.874Z,27.37
2018-05-29T08:31:30.871Z,27.52
2018-05-29T08:32:30.872Z,27.75
2018-05-29T08:33:30.878Z,27.98
2018-05-29T08:34:30.883Z,27.95
2018-05-29T08:35:30.889Z,27.85
2018-05-29T08:36:30.907Z,27.90
2018-05-29T08:37:30.904Z,27.89
2018-05-29T08:38:30.901Z,27.93
2018-05-29T08:39:30.960Z,28.00
2018-05-29T08:40:30.911Z,28.07
2018-05-29T08:41:30.913Z,28.11
2018-05-29T08:42:30.939Z,28.01
2018-05-29T08:43:30.935Z,27.98
2018-05-29T08:44:30.931Z,28.00
2018-05-29T08:45:30.948Z,27.75
2018-05-29T08:46:30.951Z,27.54
2018-05-29T08:47:30.945Z,27.39
2018-05-29T08:48:30.947Z,27.29
2018-05-29T08:49:30.953Z,27.18
2018-05-29T08:50:30.962Z,27.07
2018-05-29T08:51:30.974Z,26.96
2018-05-29T08:52:30.968Z,26.97
2018-05-29T08:53:30.972Z,26.99
2018-05-29T08:54:30.986Z,26.99
2018-05-29T08:55:30.999Z,26.85
2018-05-29T08:56:30.998Z,26.88
2018-05-29T08:57:31.019Z,26.85
2018-05-29T08:58:31.010Z,26.78
2018-05-29T08:59:30.997Z,26.58
2018-05-29T09:00:31.004Z,26.44
2018-05-29T09:01:31.020Z,26.51
2018-05-29T09:02:31.022Z,26.53
2018-05-29T09:03:31.045Z,26.44
2018-05-29T09:04:31.026Z,26.37
2018-05-29T09:05:31.029Z,26.23
2018-05-29T09:06:31.041Z,26.22
2018-05-29T09:07:31.049Z,26.00
2018-05-29T09:08:31.040Z,25.91
2018-05-29T09:09:31.062Z,25.98
2018-05-29T09:10:31.052Z,26.00
2018-05-29T09:11:31.054Z,25.99
2018-05-29T09:12:31.073Z,25.90
2018-05-29T09:13:31.098Z,25.85
2018-05-29T09:14:31.069Z,25.84
2018-05-29T09:15:31.091Z,25.77
2018-05-29T09:16:31.082Z,25.72
2018-05-29T09:17:31.098Z,25.77
2018-05-29T09:18:31.106Z,25.77
2018-05-29T09:19:31.115Z,25.80
2018-05-29T09:20:31.111Z,25.72
2018-05-29T09:21:31.106Z,25.85
2018-05-29T09:22:31.113Z,25.77
2018-05-29T09:23:31.122Z,25.70
2018-05-29T09:24:31.115Z,25.75
2018-05-29T09:25:31.129Z,25.81
2018-05-29T09:26:31.135Z,25.85
2018-05-29T09:27:31.132Z,25.87
2018-05-29T09:28:31.146Z,25.93
2018-05-29T09:29:31.138Z,25.98
2018-05-29T09:30:31.147Z,25.99
2018-05-29T09:31:31.160Z,25.91
2018-05-29T09:32:31.152Z,25.93
2018-05-29T09:33:31.157Z,25.95
2018-05-29T09:34:31.159Z,26.18
2018-05-29T09:35:31.254Z,26.68
2018-05-29T09:36:31.182Z,26.90
2018-05-29T09:37:31.192Z,27.02
2018-05-29T09:38:31.179Z,27.17
2018-05-29T09:39:31.193Z,27.47
2018-05-29T09:40:31.205Z,27.70
2018-05-29T09:41:31.209Z,28.04
2018-05-29T09:42:31.196Z,28.19
2018-05-29T09:43:31.211Z,28.39
2018-05-29T09:44:31.218Z,28.51
2018-05-29T09:45:31.224Z,28.45
2018-05-29T09:46:31.213Z,28.29
2018-05-29T09:47:31.220Z,28.00
2018-05-29T09:48:31.222Z,27.77
2018-05-29T09:49:31.227Z,27.71
2018-05-29T09:50:31.248Z,27.70
2018-05-29T09:51:31.244Z,27.40
2018-05-29T09:52:31.241Z,27.32
2018-05-29T09:53:31.260Z,27.11
2018-05-29T09:54:31.289Z,26.96
2018-05-29T09:55:31.259Z,26.97
2018-05-29T09:56:31.260Z,26.92
2018-05-29T09:57:31.281Z,26.74
2018-05-29T09:58:31.486Z,26.77
2018-05-29T09:59:31.329Z,26.62
2018-05-29T10:00:31.295Z,26.53
2018-05-29T10:01:31.288Z,26.51
2018-05-29T10:02:31.312Z,26.48
2018-05-29T10:03:31.296Z,26.44
2018-05-29T10:04:31.298Z,26.43
2018-05-29T10:05:31.316Z,26.37
2018-05-29T10:06:31.312Z,26.25
2018-05-29T10:07:31.328Z,26.23
2018-05-29T10:08:31.318Z,26.25
2018-05-29T10:09:31.323Z,26.26
2018-05-29T10:10:31.534Z,26.31
2018-05-29T10:11:31.333Z,26.44
2018-05-29T10:12:31.541Z,26.51
2018-05-29T10:13:31.546Z,26.68
2018-05-29T10:14:31.352Z,26.81
2018-05-29T10:15:31.351Z,27.20
2018-05-29T10:16:31.371Z,27.22
2018-05-29T10:17:31.361Z,27.26
2018-05-29T10:18:31.368Z,27.10
2018-05-29T10:19:31.370Z,27.08
2018-05-29T10:20:31.386Z,27.05
2018-05-29T10:21:31.381Z,26.92
2018-05-29T10:22:31.386Z,27.03
2018-05-29T10:23:31.393Z,27.35
2018-05-29T10:24:31.608Z,27.26
2018-05-29T10:25:31.410Z,27.26
2018-05-29T10:26:31.405Z,27.30
2018-05-29T10:27:31.408Z,27.21
2018-05-29T10:28:31.438Z,27.10
2018-05-29T10:29:31.429Z,27.02
2018-05-29T10:30:31.433Z,26.93
2018-05-29T10:31:31.442Z,26.89
2018-05-29T10:32:31.447Z,26.90
2018-05-29T10:33:31.451Z,26.80
2018-05-29T10:34:31.453Z,26.81
2018-05-29T10:35:31.460Z,27.00
2018-05-29T10:36:31.466Z,26.96
2018-05-29T10:37:31.457Z,26.93
2018-05-29T10:38:31.463Z,26.90
2018-05-29T10:39:31.481Z,26.70
2018-05-29T10:40:31.501Z,26.78
2018-05-29T10:41:31.688Z,26.74
2018-05-29T10:42:31.487Z,26.90
2018-05-29T10:43:31.489Z,26.89
2018-05-29T10:44:31.491Z,27.00
2018-05-29T10:45:31.495Z,27.10
2018-05-29T10:46:31.502Z,27.12
2018-05-29T10:47:31.522Z,27.10
2018-05-29T10:48:31.718Z,26.97
2018-05-29T10:49:31.729Z,27.02
2018-05-29T10:50:31.521Z,26.90
2018-05-29T10:51:31.536Z,26.83
2018-05-29T10:52:31.558Z,26.90
2018-05-29T10:53:31.551Z,26.81
2018-05-29T10:54:31.557Z,26.70
2018-05-29T10:55:31.556Z,26.92
2018-05-29T10:56:31.550Z,26.89
2018-05-29T10:57:31.557Z,26.81
2018-05-29T10:58:31.575Z,26.90
2018-05-29T10:59:31.563Z,26.92
2018-05-29T11:00:31.567Z,26.92
2018-05-29T11:01:31.574Z,26.89
2018-05-29T11:02:31.578Z,26.71
2018-05-29T11:03:31.583Z,26.80
2018-05-29T11:04:31.600Z,26.66
2018-05-29T11:05:31.592Z,26.62
2018-05-29T11:06:31.816Z,26.70
2018-05-29T11:07:31.605Z,26.63
2018-05-29T11:08:31.830Z,26.66
2018-05-29T11:09:31.613Z,26.71
2018-05-29T11:10:31.819Z,26.75
2018-05-29T11:11:31.623Z,26.75
2018-05-29T11:12:31.640Z,26.62
2018-05-29T11:13:31.633Z,26.73
2018-05-29T11:14:31.644Z,26.59
2018-05-29T11:15:31.645Z,26.65
2018-05-29T11:16:31.671Z,26.60
2018-05-29T11:17:31.653Z,26.60
2018-05-29T11:18:31.658Z,26.77
2018-05-29T11:19:31.677Z,26.74
2018-05-29T11:20:31.669Z,26.77
2018-05-29T11:21:31.670Z,26.66
2018-05-29T11:22:31.891Z,26.65
2018-05-29T11:23:31.894Z,26.70
2018-05-29T11:24:31.897Z,26.66
2018-05-29T11:25:31.692Z,26.70
2018-05-29T11:26:31.700Z,26.55
2018-05-29T11:27:31.702Z,26.58
2018-05-29T11:28:31.706Z,26.58
2018-05-29T11:29:31.726Z,26.66
2018-05-29T11:30:31.718Z,26.58
2018-05-29T11:31:31.731Z,26.68
2018-05-29T11:32:31.724Z,26.63
2018-05-29T11:33:31.741Z,26.52
2018-05-29T11:34:31.748Z,26.58
2018-05-29T11:35:31.740Z,26.56
2018-05-29T11:36:31.745Z,26.62
2018-05-29T11:37:31.765Z,26.60
2018-05-29T11:38:31.971Z,26.62
2018-05-29T11:39:31.773Z,26.65
2018-05-29T11:40:31.784Z,26.66
2018-05-29T11:41:31.968Z,26.65
2018-05-29T11:42:31.800Z,26.70
2018-05-29T11:43:32.012Z,26.89
2018-05-29T11:44:31.784Z,26.96
2018-05-29T11:45:31.804Z,27.00
2018-05-29T11:46:31.805Z,27.15
2018-05-29T11:47:31.809Z,27.35
2018-05-29T11:48:31.859Z,27.44
2018-05-29T11:49:31.833Z,27.60
2018-05-29T11:50:31.814Z,27.67
2018-05-29T11:51:31.829Z,27.86
2018-05-29T11:52:31.834Z,28.14
2018-05-29T11:53:32.041Z,28.45
2018-05-29T11:54:31.850Z,28.72
2018-05-29T11:55:31.848Z,28.94
2018-05-29T11:56:31.845Z,28.89
2018-05-29T11:57:31.859Z,28.81
2018-05-29T11:58:31.865Z,28.75
2018-05-29T11:59:31.859Z,28.69
2018-05-29T12:00:31.875Z,28.52
2018-05-29T12:01:31.870Z,28.44
2018-05-29T12:02:31.902Z,28.39
2018-05-29T12:03:31.891Z,28.37
2018-05-29T12:04:31.885Z,28.41
2018-05-29T12:05:31.908Z,28.48
2018-05-29T12:06:31.897Z,28.47
2018-05-29T12:07:31.974Z,28.47
2018-05-29T12:08:31.918Z,28.45
2018-05-29T12:09:31.930Z,28.51
2018-05-29T12:10:31.918Z,28.38
2018-05-29T12:11:31.935Z,28.27
2018-05-29T12:12:31.959Z,28.23
2018-05-29T12:13:31.947Z,28.07
2018-05-29T12:14:31.948Z,27.96
2018-05-29T12:15:31.957Z,27.82
2018-05-29T12:16:31.958Z,27.75
2018-05-29T12:17:31.991Z,27.63
2018-05-29T12:18:31.959Z,27.59
2018-05-29T12:19:31.965Z,27.63
2018-05-29T12:20:31.971Z,27.58
2018-05-29T12:21:31.990Z,27.48
2018-05-29T12:22:31.997Z,27.49
2018-05-29T12:23:32.003Z,27.39
2018-05-29T12:24:32.195Z,27.35
2018-05-29T12:25:31.998Z,27.35
2018-05-29T12:26:32.226Z,27.22
2018-05-29T12:27:32.008Z,27.35
2018-05-29T12:28:32.014Z,27.27
2018-05-29T12:29:32.029Z,27.26
2018-05-29T12:30:32.026Z,27.27
2018-05-29T12:31:32.030Z,27.25
2018-05-29T12:32:32.034Z,27.20
2018-05-29T12:33:32.040Z,27.22
2018-05-29T12:34:32.252Z,27.32
2018-05-29T12:35:32.068Z,27.47
2018-05-29T12:36:32.057Z,27.49
2018-05-29T12:37:32.063Z,27.51
2018-05-29T12:38:32.069Z,27.45
2018-05-29T12:39:32.078Z,27.36
2018-05-29T12:40:32.078Z,27.47
2018-05-29T12:41:32.097Z,27.37
2018-05-29T12:42:32.090Z,27.47
2018-05-29T12:43:32.309Z,27.49
2018-05-29T12:44:32.110Z,27.55
2018-05-29T12:45:32.309Z,27.51
2018-05-29T12:46:32.323Z,27.63
2018-05-29T12:47:32.131Z,27.59
2018-05-29T12:48:32.131Z,27.65
2018-05-29T12:49:32.341Z,27.59
2018-05-29T12:50:32.132Z,27.52
2018-05-29T12:51:32.139Z,27.54
2018-05-29T12:52:32.140Z,27.51